Terminal Aerodrome Forecast
Issued by NWS

Home | Current Version | Previous Version | Text Only | Print | Product List | Glossary On
Versions: 1 2 3 4 5 6 7 8 9 10 11 12 13 14 15 16 17 18 19 20 21 22 23 24 25 26 27 28 29 30 31 32 33 34
000
FTAK31 PAFA 311120
TAFASC
TAF
PASC 311120Z 3112/0112 29013KT 3SM -SN BR BKN008 OVC015
     FM311800 29018G23KT 3SM -RASN BR BKN008 OVC015
     FM312100 29023G28KT 5SM -RASN BR OVC010
     FM010500 29023G28KT 5SM -RASN BR OVC007=

USA.gov is the U.S. government's official web portal to all federal, state and local government web resources and services.